sensor_id;sensor_type;location;lat;lon;timestamp;pressure;altitude;pressure_sealevel;temperature;humidity
21658;BME280;10990;48.174;9.782;2023-06-14T00:01:13;95334.81;;;11.28;100.00
21658;BME280;10990;48.174;9.782;2023-06-14T00:03:40;95326.75;;;11.38;100.00
21658;BME280;10990;48.174;9.782;2023-06-14T00:06:07;95329.03;;;11.25;100.00
21658;BME280;10990;48.174;9.782;2023-06-14T00:08:34;95329.47;;;11.04;100.00
21658;BME280;10990;48.174;9.782;2023-06-14T00:11:01;95329.34;;;11.13;100.00
21658;BME280;10990;48.174;9.782;2023-06-14T00:13:29;95331.78;;;10.98;100.00
21658;BME280;10990;48.174;9.782;2023-06-14T00:15:55;95326.28;;;10.92;100.00
21658;BME280;10990;48.174;9.782;2023-06-14T00:18:22;95324.97;;;10.88;100.00
21658;BME280;10990;48.174;9.782;2023-06-14T00:20:52;95324.28;;;10.86;100.00
21658;BME280;10990;48.174;9.782;2023-06-14T00:23:18;95324.84;;;10.63;100.00
21658;BME280;10990;48.174;9.782;2023-06-14T00:25:45;95322.31;;;10.53;100.00
21658;BME280;10990;48.174;9.782;2023-06-14T00:28:13;95327.03;;;10.68;100.00
21658;BME280;10990;48.174;9.782;2023-06-14T00:30:41;95325.91;;;10.79;100.00
21658;BME280;10990;48.174;9.782;2023-06-14T00:33:09;95327.09;;;10.84;100.00
21658;BME280;10990;48.174;9.782;2023-06-14T00:35:36;95321.81;;;10.92;100.00
21658;BME280;10990;48.174;9.782;2023-06-14T00:38:03;95323.09;;;10.80;100.00
21658;BME280;10990;48.174;9.782;2023-06-14T00:40:30;95322.94;;;10.82;100.00
21658;BME280;10990;48.174;9.782;2023-06-14T00:42:56;95329.41;;;10.53;100.00
21658;BME280;10990;48.174;9.782;2023-06-14T00:45:23;95331.75;;;10.56;100.00
21658;BME280;10990;48.174;9.782;2023-06-14T00:47:51;95323.94;;;10.46;100.00
21658;BME280;10990;48.174;9.782;2023-06-14T00:50:20;95328.81;;;10.59;100.00
21658;BME280;10990;48.174;9.782;2023-06-14T00:52:48;95328.25;;;10.55;100.00
21658;BME280;10990;48.174;9.782;2023-06-14T00:55:17;95318.09;;;10.69;100.00
21658;BME280;10990;48.174;9.782;2023-06-14T00:57:44;95326.06;;;10.17;100.00
21658;BME280;10990;48.174;9.782;2023-06-14T01:00:13;95325.75;;;10.20;100.00
21658;BME280;10990;48.174;9.782;2023-06-14T01:02:40;95324.31;;;10.07;100.00
21658;BME280;10990;48.174;9.782;2023-06-14T01:05:10;95325.75;;;10.20;100.00
21658;BME280;10990;48.174;9.782;2023-06-14T01:07:50;95317.75;;;9.85;100.00
21658;BME280;10990;48.174;9.782;2023-06-14T01:10:31;95306.69;;;10.34;100.00
21658;BME280;10990;48.174;9.782;2023-06-14T01:13:07;95312.56;;;10.54;100.00
21658;BME280;10990;48.174;9.782;2023-06-14T01:15:38;95312.03;;;10.24;100.00
21658;BME280;10990;48.174;9.782;2023-06-14T01:18:05;95313.72;;;10.25;100.00
21658;BME280;10990;48.174;9.782;2023-06-14T01:20:34;95315.44;;;10.08;100.00
21658;BME280;10990;48.174;9.782;2023-06-14T01:23:04;95311.84;;;10.18;100.00
21658;BME280;10990;48.174;9.782;2023-06-14T01:25:31;95305.56;;;10.19;100.00
21658;BME280;10990;48.174;9.782;2023-06-14T01:27:59;95301.91;;;10.12;100.00
21658;BME280;10990;48.174;9.782;2023-06-14T01:30:28;95303.09;;;9.91;100.00
21658;BME280;10990;48.174;9.782;2023-06-14T01:32:56;95302.41;;;9.89;100.00
21658;BME280;10990;48.174;9.782;2023-06-14T01:35:24;95305.03;;;9.89;100.00
21658;BME280;10990;48.174;9.782;2023-06-14T01:37:51;95310.91;;;9.39;100.00
21658;BME280;10990;48.174;9.782;2023-06-14T01:40:21;95306.56;;;9.02;100.00
21658;BME280;10990;48.174;9.782;2023-06-14T01:42:50;95288.63;;;9.59;100.00
21658;BME280;10990;48.174;9.782;2023-06-14T01:45:18;95284.66;;;9.55;100.00
21658;BME280;10990;48.174;9.782;2023-06-14T01:47:46;95278.66;;;9.71;100.00
21658;BME280;10990;48.174;9.782;2023-06-14T01:50:15;95292.47;;;9.65;100.00
21658;BME280;10990;48.174;9.782;2023-06-14T01:52:42;95293.91;;;9.59;100.00
21658;BME280;10990;48.174;9.782;2023-06-14T01:55:09;95291.75;;;9.55;100.00
21658;BME280;10990;48.174;9.782;2023-06-14T01:57:39;95291.13;;;9.43;100.00
21658;BME280;10990;48.174;9.782;2023-06-14T02:00:07;95277.16;;;9.51;100.00
21658;BME280;10990;48.174;9.782;2023-06-14T02:02:38;95268.66;;;9.39;100.00
21658;BME280;10990;48.174;9.782;2023-06-14T02:05:05;95262.53;;;9.56;100.00
21658;BME280;10990;48.174;9.782;2023-06-14T02:07:32;95266.06;;;9.65;100.00
21658;BME280;10990;48.174;9.782;2023-06-14T02:09:59;95272.72;;;8.97;100.00
21658;BME280;10990;48.174;9.782;2023-06-14T02:12:25;95260.38;;;9.34;100.00
21658;BME280;10990;48.174;9.782;2023-06-14T02:14:53;95257.19;;;9.48;100.00
21658;BME280;10990;48.174;9.782;2023-06-14T02:17:22;95267.00;;;9.20;100.00
21658;BME280;10990;48.174;9.782;2023-06-14T02:19:49;95268.25;;;8.98;100.00
21658;BME280;10990;48.174;9.782;2023-06-14T02:22:16;95259.25;;;9.18;100.00
21658;BME280;10990;48.174;9.782;2023-06-14T02:24:43;95266.88;;;9.22;100.00
21658;BME280;10990;48.174;9.782;2023-06-14T02:27:10;95264.22;;;9.22;100.00
21658;BME280;10990;48.174;9.782;2023-06-14T02:29:37;95262.41;;;9.22;100.00
21658;BME280;10990;48.174;9.782;2023-06-14T02:32:06;95267.56;;;9.24;100.00
21658;BME280;10990;48.174;9.782;2023-06-14T02:34:33;95264.81;;;9.33;100.00
21658;BME280;10990;48.174;9.782;2023-06-14T02:37:00;95261.28;;;9.07;100.00
21658;BME280;10990;48.174;9.782;2023-06-14T02:39:28;95266.63;;;8.97;100.00
21658;BME280;10990;48.174;9.782;2023-06-14T02:41:55;95262.19;;;9.15;100.00
21658;BME280;10990;48.174;9.782;2023-06-14T02:44:24;95273.09;;;9.20;100.00
21658;BME280;10990;48.174;9.782;2023-06-14T02:46:52;95257.78;;;8.88;100.00
21658;BME280;10990;48.174;9.782;2023-06-14T02:49:20;95249.38;;;9.03;100.00
21658;BME280;10990;48.174;9.782;2023-06-14T02:51:47;95250.44;;;9.10;100.00
21658;BME280;10990;48.174;9.782;2023-06-14T02:54:14;95256.38;;;9.12;100.00
21658;BME280;10990;48.174;9.782;2023-06-14T02:56:41;95260.59;;;9.05;100.00
21658;BME280;10990;48.174;9.782;2023-06-14T02:59:08;95276.38;;;8.87;100.00
21658;BME280;10990;48.174;9.782;2023-06-14T03:01:36;95258.28;;;8.56;100.00
21658;BME280;10990;48.174;9.782;2023-06-14T03:04:07;95248.97;;;8.62;100.00
21658;BME280;10990;48.174;9.782;2023-06-14T03:06:38;95242.78;;;8.89;100.00
21658;BME280;10990;48.174;9.782;2023-06-14T03:09:06;95244.91;;;9.03;100.00
21658;BME280;10990;48.174;9.782;2023-06-14T03:11:36;95251.84;;;8.86;100.00
21658;BME280;10990;48.174;9.782;2023-06-14T03:14:03;95251.59;;;8.62;100.00
21658;BME280;10990;48.174;9.782;2023-06-14T03:16:32;95251.59;;;8.62;100.00
21658;BME280;10990;48.174;9.782;2023-06-14T03:18:59;95242.56;;;8.82;100.00
21658;BME280;10990;48.174;9.782;2023-06-14T03:21:30;95238.44;;;8.97;100.00
21658;BME280;10990;48.174;9.782;2023-06-14T03:24:01;95237.16;;;9.02;100.00
21658;BME280;10990;48.174;9.782;2023-06-14T03:26:29;95242.06;;;8.96;100.00
21658;BME280;10990;48.174;9.782;2023-06-14T03:28:57;95229.88;;;8.95;100.00
21658;BME280;10990;48.174;9.782;2023-06-14T03:31:24;95230.06;;;9.02;100.00
21658;BME280;10990;48.174;9.782;2023-06-14T03:33:52;95236.47;;;8.82;100.00
21658;BME280;10990;48.174;9.782;2023-06-14T03:36:19;95241.06;;;8.80;100.00
21658;BME280;10990;48.174;9.782;2023-06-14T03:38:46;95237.00;;;8.67;100.00
21658;BME280;10990;48.174;9.782;2023-06-14T03:41:15;95231.50;;;8.79;100.00
21658;BME280;10990;48.174;9.782;2023-06-14T03:43:43;95236.59;;;8.62;100.00
21658;BME280;10990;48.174;9.782;2023-06-14T03:46:10;95227.97;;;8.88;100.00
21658;BME280;10990;48.174;9.782;2023-06-14T03:48:36;95231.94;;;8.92;100.00
21658;BME280;10990;48.174;9.782;2023-06-14T03:51:04;95235.72;;;9.07;100.00
21658;BME280;10990;48.174;9.782;2023-06-14T03:53:31;95246.22;;;8.99;100.00
21658;BME280;10990;48.174;9.782;2023-06-14T03:55:58;95251.69;;;9.06;100.00
21658;BME280;10990;48.174;9.782;2023-06-14T03:58:33;95255.25;;;8.96;100.00
21658;BME280;10990;48.174;9.782;2023-06-14T04:01:00;95266.56;;;9.07;100.00
21658;BME280;10990;48.174;9.782;2023-06-14T04:03:30;95258.69;;;9.15;100.00
21658;BME280;10990;48.174;9.782;2023-06-14T04:05:59;95264.22;;;9.22;100.00
21658;BME280;10990;48.174;9.782;2023-06-14T04:08:26;95258.66;;;9.25;100.00
21658;BME280;10990;48.174;9.782;2023-06-14T04:10:53;95258.38;;;9.54;100.00
21658;BME280;10990;48.174;9.782;2023-06-14T04:13:19;95256.63;;;9.62;100.00
21658;BME280;10990;48.174;9.782;2023-06-14T04:15:48;95263.59;;;9.63;100.00
21658;BME280;10990;48.174;9.782;2023-06-14T04:18:21;95266.63;;;9.77;100.00
21658;BME280;10990;48.174;9.782;2023-06-14T04:20:49;95256.69;;;9.88;100.00
21658;BME280;10990;48.174;9.782;2023-06-14T04:23:17;95249.63;;;9.97;100.00
21658;BME280;10990;48.174;9.782;2023-06-14T04:25:45;95258.78;;;10.11;100.00
21658;BME280;10990;48.174;9.782;2023-06-14T04:28:13;95259.31;;;10.15;100.00
21658;BME280;10990;48.174;9.782;2023-06-14T04:30:41;95263.03;;;10.30;100.00
21658;BME280;10990;48.174;9.782;2023-06-14T04:33:09;95280.06;;;10.09;100.00
21658;BME280;10990;48.174;9.782;2023-06-14T04:35:36;95270.66;;;10.33;100.00
21658;BME280;10990;48.174;9.782;2023-06-14T04:38:04;95277.84;;;10.49;100.00
21658;BME280;10990;48.174;9.782;2023-06-14T04:40:35;95280.75;;;10.38;100.00
21658;BME280;10990;48.174;9.782;2023-06-14T04:43:08;95279.47;;;10.84;100.00
21658;BME280;10990;48.174;9.782;2023-06-14T04:45:39;95286.47;;;11.02;100.00
21658;BME280;10990;48.174;9.782;2023-06-14T04:48:07;95285.69;;;11.26;100.00
21658;BME280;10990;48.174;9.782;2023-06-14T04:50:35;95294.34;;;11.60;100.00
21658;BME280;10990;48.174;9.782;2023-06-14T04:53:02;95294.66;;;11.65;100.00
21658;BME280;10990;48.174;9.782;2023-06-14T04:55:29;95279.59;;;12.15;100.00
21658;BME280;10990;48.174;9.782;2023-06-14T04:57:56;95293.28;;;12.43;100.00
21658;BME280;10990;48.174;9.782;2023-06-14T05:00:23;95288.47;;;12.47;100.00
21658;BME280;10990;48.174;9.782;2023-06-14T05:02:50;95288.50;;;12.78;100.00
21658;BME280;10990;48.174;9.782;2023-06-14T05:05:18;95291.59;;;12.98;100.00
21658;BME280;10990;48.174;9.782;2023-06-14T05:07:47;95310.19;;;12.98;100.00
21658;BME280;10990;48.174;9.782;2023-06-14T05:10:14;95315.28;;;13.39;100.00
21658;BME280;10990;48.174;9.782;2023-06-14T05:12:41;95320.00;;;13.83;100.00
21658;BME280;10990;48.174;9.782;2023-06-14T05:15:10;95379.03;;;14.16;100.00
21658;BME280;10990;48.174;9.782;2023-06-14T05:17:38;95390.69;;;14.15;100.00
21658;BME280;10990;48.174;9.782;2023-06-14T05:20:07;95407.34;;;14.55;100.00
21658;BME280;10990;48.174;9.782;2023-06-14T05:22:35;95416.69;;;14.51;100.00
21658;BME280;10990;48.174;9.782;2023-06-14T05:25:04;95416.56;;;14.44;100.00
21658;BME280;10990;48.174;9.782;2023-06-14T05:27:31;95409.94;;;14.78;100.00
21658;BME280;10990;48.174;9.782;2023-06-14T05:29:59;95420.28;;;14.58;100.00
21658;BME280;10990;48.174;9.782;2023-06-14T05:32:26;95413.84;;;15.05;100.00
21658;BME280;10990;48.174;9.782;2023-06-14T05:34:53;95421.22;;;15.18;100.00
21658;BME280;10990;48.174;9.782;2023-06-14T05:37:19;95412.44;;;15.54;100.00
21658;BME280;10990;48.174;9.782;2023-06-14T05:39:46;95423.25;;;15.67;100.00
21658;BME280;10990;48.174;9.782;2023-06-14T05:42:14;95430.44;;;15.66;100.00
21658;BME280;10990;48.174;9.782;2023-06-14T05:44:41;95424.81;;;16.12;100.00
21658;BME280;10990;48.174;9.782;2023-06-14T05:47:07;95434.84;;;16.10;100.00
21658;BME280;10990;48.174;9.782;2023-06-14T05:49:34;95436.38;;;15.98;100.00
21658;BME280;10990;48.174;9.782;2023-06-14T05:52:01;95437.59;;;16.60;100.00
21658;BME280;10990;48.174;9.782;2023-06-14T05:54:27;95430.84;;;16.64;100.00
21658;BME280;10990;48.174;9.782;2023-06-14T05:56:54;95432.13;;;16.90;100.00
21658;BME280;10990;48.174;9.782;2023-06-14T05:59:22;95431.38;;;16.53;100.00
21658;BME280;10990;48.174;9.782;2023-06-14T06:01:49;95432.13;;;16.47;100.00
21658;BME280;10990;48.174;9.782;2023-06-14T06:04:15;95431.84;;;17.13;100.00
21658;BME280;10990;48.174;9.782;2023-06-14T06:06:42;95436.31;;;17.06;100.00
21658;BME280;10990;48.174;9.782;2023-06-14T06:09:08;95435.47;;;17.75;100.00
21658;BME280;10990;48.174;9.782;2023-06-14T06:11:35;95426.16;;;18.12;100.00
21658;BME280;10990;48.174;9.782;2023-06-14T06:14:02;95428.22;;;18.30;100.00
21658;BME280;10990;48.174;9.782;2023-06-14T06:16:30;95421.72;;;18.79;100.00
21658;BME280;10990;48.174;9.782;2023-06-14T06:18:56;95431.53;;;18.32;100.00
21658;BME280;10990;48.174;9.782;2023-06-14T06:21:23;95430.41;;;18.81;100.00
21658;BME280;10990;48.174;9.782;2023-06-14T06:23:50;95423.09;;;19.28;100.00
21658;BME280;10990;48.174;9.782;2023-06-14T06:26:16;95436.69;;;18.27;100.00
21658;BME280;10990;48.174;9.782;2023-06-14T06:28:43;95434.59;;;19.55;100.00
21658;BME280;10990;48.174;9.782;2023-06-14T06:31:10;95421.31;;;19.87;100.00
21658;BME280;10990;48.174;9.782;2023-06-14T06:33:38;95420.66;;;20.30;100.00
21658;BME280;10990;48.174;9.782;2023-06-14T06:36:05;95418.94;;;20.04;100.00
21658;BME280;10990;48.174;9.782;2023-06-14T06:38:31;95422.06;;;20.01;100.00
21658;BME280;10990;48.174;9.782;2023-06-14T06:40:58;95425.25;;;20.23;100.00
21658;BME280;10990;48.174;9.782;2023-06-14T06:43:25;95421.91;;;20.91;100.00
21658;BME280;10990;48.174;9.782;2023-06-14T06:45:52;95421.19;;;20.77;100.00
21658;BME280;10990;48.174;9.782;2023-06-14T06:48:19;95427.75;;;20.49;100.00
21658;BME280;10990;48.174;9.782;2023-06-14T06:50:47;95422.59;;;21.30;100.00
21658;BME280;10990;48.174;9.782;2023-06-14T06:53:14;95426.00;;;21.43;100.00
21658;BME280;10990;48.174;9.782;2023-06-14T06:55:40;95428.63;;;21.68;100.00
21658;BME280;10990;48.174;9.782;2023-06-14T06:58:07;95421.53;;;21.74;100.00
21658;BME280;10990;48.174;9.782;2023-06-14T07:00:34;95428.13;;;22.08;100.00
21658;BME280;10990;48.174;9.782;2023-06-14T07:03:00;95427.94;;;21.55;98.78
21658;BME280;10990;48.174;9.782;2023-06-14T07:05:29;95437.50;;;21.07;100.00
21658;BME280;10990;48.174;9.782;2023-06-14T07:07:58;95434.53;;;21.77;98.84
21658;BME280;10990;48.174;9.782;2023-06-14T07:10:25;95431.88;;;22.56;94.91
21658;BME280;10990;48.174;9.782;2023-06-14T07:12:51;95433.38;;;21.85;97.00
21658;BME280;10990;48.174;9.782;2023-06-14T07:15:18;95422.75;;;22.80;97.09
21658;BME280;10990;48.174;9.782;2023-06-14T07:17:45;95435.16;;;23.23;88.71
21658;BME280;10990;48.174;9.782;2023-06-14T07:20:12;95426.00;;;23.36;85.69
21658;BME280;10990;48.174;9.782;2023-06-14T07:22:41;95432.56;;;23.05;88.68
21658;BME280;10990;48.174;9.782;2023-06-14T07:25:10;95437.69;;;22.95;92.08
21658;BME280;10990;48.174;9.782;2023-06-14T07:27:39;95431.28;;;23.43;82.73
21658;BME280;10990;48.174;9.782;2023-06-14T07:30:07;95447.72;;;22.76;86.11
21658;BME280;10990;48.174;9.782;2023-06-14T07:32:34;95452.03;;;22.35;87.40
21658;BME280;10990;48.174;9.782;2023-06-14T07:35:00;95443.84;;;22.72;87.86
21658;BME280;10990;48.174;9.782;2023-06-14T07:37:28;95438.91;;;23.22;87.52
21658;BME280;10990;48.174;9.782;2023-06-14T07:39:55;95436.91;;;23.30;84.36
21658;BME280;10990;48.174;9.782;2023-06-14T07:42:23;95426.09;;;24.17;80.53
21658;BME280;10990;48.174;9.782;2023-06-14T07:44:49;95444.47;;;22.86;82.96
21658;BME280;10990;48.174;9.782;2023-06-14T07:47:17;95435.38;;;23.81;82.01
21658;BME280;10990;48.174;9.782;2023-06-14T07:49:44;95432.88;;;23.79;80.54
21658;BME280;10990;48.174;9.782;2023-06-14T07:52:10;95434.28;;;24.34;78.02
21658;BME280;10990;48.174;9.782;2023-06-14T07:54:38;95437.44;;;24.02;76.73
21658;BME280;10990;48.174;9.782;2023-06-14T07:57:06;95436.56;;;25.16;71.83
21658;BME280;10990;48.174;9.782;2023-06-14T07:59:35;95431.88;;;24.95;70.51
21658;BME280;10990;48.174;9.782;2023-06-14T08:02:02;95435.94;;;24.97;72.84
21658;BME280;10990;48.174;9.782;2023-06-14T08:04:29;95425.47;;;25.90;64.45
21658;BME280;10990;48.174;9.782;2023-06-14T08:06:56;95427.16;;;25.58;66.54
21658;BME280;10990;48.174;9.782;2023-06-14T08:09:23;95430.81;;;25.30;66.03
21658;BME280;10990;48.174;9.782;2023-06-14T08:11:50;95442.53;;;25.01;68.06
21658;BME280;10990;48.174;9.782;2023-06-14T08:14:17;95446.53;;;24.13;67.81
21658;BME280;10990;48.174;9.782;2023-06-14T08:16:45;95439.06;;;24.72;67.92
21658;BME280;10990;48.174;9.782;2023-06-14T08:19:12;95439.50;;;24.52;68.86
21658;BME280;10990;48.174;9.782;2023-06-14T08:21:38;95434.75;;;24.59;65.84
21658;BME280;10990;48.174;9.782;2023-06-14T08:24:05;95445.59;;;24.76;66.10
21658;BME280;10990;48.174;9.782;2023-06-14T08:26:32;95427.09;;;26.63;60.51
21658;BME280;10990;48.174;9.782;2023-06-14T08:28:59;95435.09;;;25.64;62.67
21658;BME280;10990;48.174;9.782;2023-06-14T08:31:26;95440.66;;;25.91;62.08
21658;BME280;10990;48.174;9.782;2023-06-14T08:33:54;95430.97;;;26.72;57.60
21658;BME280;10990;48.174;9.782;2023-06-14T08:36:21;95451.16;;;24.41;62.89
21658;BME280;10990;48.174;9.782;2023-06-14T08:38:48;95441.81;;;25.62;65.29
21658;BME280;10990;48.174;9.782;2023-06-14T08:41:20;95448.09;;;24.78;64.21
21658;BME280;10990;48.174;9.782;2023-06-14T08:43:47;95439.59;;;25.76;63.37
21658;BME280;10990;48.174;9.782;2023-06-14T08:46:15;95443.69;;;25.78;60.90
21658;BME280;10990;48.174;9.782;2023-06-14T08:48:46;95431.88;;;26.50;61.44
21658;BME280;10990;48.174;9.782;2023-06-14T08:51:18;95429.19;;;27.47;59.73
21658;BME280;10990;48.174;9.782;2023-06-14T08:53:46;95431.41;;;26.58;58.15
21658;BME280;10990;48.174;9.782;2023-06-14T08:56:16;95441.94;;;26.82;57.08
21658;BME280;10990;48.174;9.782;2023-06-14T08:58:44;95437.84;;;25.31;56.34
21658;BME280;10990;48.174;9.782;2023-06-14T09:01:11;95447.66;;;25.15;58.30
21658;BME280;10990;48.174;9.782;2023-06-14T09:03:40;95439.84;;;26.13;57.95
21658;BME280;10990;48.174;9.782;2023-06-14T09:06:07;95438.47;;;26.37;58.97
21658;BME280;10990;48.174;9.782;2023-06-14T09:08:41;95437.19;;;26.67;53.63
21658;BME280;10990;48.174;9.782;2023-06-14T09:11:10;95440.59;;;26.35;59.16
21658;BME280;10990;48.174;9.782;2023-06-14T09:13:38;95449.03;;;25.34;60.22
21658;BME280;10990;48.174;9.782;2023-06-14T09:16:05;95457.72;;;24.16;63.08
21658;BME280;10990;48.174;9.782;2023-06-14T09:18:35;95454.28;;;24.62;62.96
21658;BME280;10990;48.174;9.782;2023-06-14T09:21:02;95462.94;;;24.92;63.65
21658;BME280;10990;48.174;9.782;2023-06-14T09:23:29;95447.56;;;25.82;59.50
21658;BME280;10990;48.174;9.782;2023-06-14T09:26:01;95455.34;;;25.40;62.76
21658;BME280;10990;48.174;9.782;2023-06-14T09:28:28;95456.84;;;25.86;62.76
21658;BME280;10990;48.174;9.782;2023-06-14T09:30:54;95456.19;;;24.78;64.65
21658;BME280;10990;48.174;9.782;2023-06-14T09:33:21;95459.13;;;24.76;61.92
21658;BME280;10990;48.174;9.782;2023-06-14T09:35:51;95466.38;;;25.04;62.14
21658;BME280;10990;48.174;9.782;2023-06-14T09:38:18;95465.53;;;24.70;64.18
21658;BME280;10990;48.174;9.782;2023-06-14T09:40:44;95466.38;;;23.78;62.42
21658;BME280;10990;48.174;9.782;2023-06-14T09:43:13;95468.25;;;23.54;68.22
21658;BME280;10990;48.174;9.782;2023-06-14T09:45:39;95455.97;;;24.96;62.07
21658;BME280;10990;48.174;9.782;2023-06-14T09:48:07;95466.38;;;24.30;62.50
21658;BME280;10990;48.174;9.782;2023-06-14T09:50:34;95456.31;;;25.17;61.95
21658;BME280;10990;48.174;9.782;2023-06-14T09:53:03;95477.72;;;24.04;61.78
21658;BME280;10990;48.174;9.782;2023-06-14T09:55:34;95472.72;;;23.72;65.66
21658;BME280;10990;48.174;9.782;2023-06-14T09:58:04;95482.22;;;22.86;64.89
21658;BME280;10990;48.174;9.782;2023-06-14T10:00:33;95467.41;;;23.54;64.17
21658;BME280;10990;48.174;9.782;2023-06-14T10:03:03;95466.56;;;24.00;63.60
21658;BME280;10990;48.174;9.782;2023-06-14T10:05:45;95454.28;;;23.34;62.34
21658;BME280;10990;48.174;9.782;2023-06-14T10:08:14;95449.22;;;24.25;60.50
21658;BME280;10990;48.174;9.782;2023-06-14T10:10:42;95452.81;;;24.13;62.98
21658;BME280;10990;48.174;9.782;2023-06-14T10:13:09;95444.19;;;24.57;60.88
21658;BME280;10990;48.174;9.782;2023-06-14T10:15:42;95453.84;;;24.12;61.25
21658;BME280;10990;48.174;9.782;2023-06-14T10:18:18;95454.75;;;23.66;62.30
21658;BME280;10990;48.174;9.782;2023-06-14T10:20:53;95458.47;;;23.65;59.92
21658;BME280;10990;48.174;9.782;2023-06-14T10:23:25;95460.00;;;23.25;58.40
21658;BME280;10990;48.174;9.782;2023-06-14T10:25:56;95467.78;;;22.92;60.25
21658;BME280;10990;48.174;9.782;2023-06-14T10:28:25;95455.13;;;24.22;56.87
21658;BME280;10990;48.174;9.782;2023-06-14T10:31:12;95460.63;;;23.75;59.73
21658;BME280;10990;48.174;9.782;2023-06-14T10:33:48;95456.16;;;23.80;61.95
21658;BME280;10990;48.174;9.782;2023-06-14T10:36:27;95460.47;;;24.05;61.19
21658;BME280;10990;48.174;9.782;2023-06-14T10:39:05;95456.06;;;24.15;60.32
21658;BME280;10990;48.174;9.782;2023-06-14T10:41:35;95440.88;;;24.55;58.84
21658;BME280;10990;48.174;9.782;2023-06-14T10:44:32;95447.47;;;24.59;61.56
21658;BME280;10990;48.174;9.782;2023-06-14T10:46:59;95442.66;;;24.21;57.67
21658;BME280;10990;48.174;9.782;2023-06-14T10:49:40;95446.09;;;24.16;59.74
21658;BME280;10990;48.174;9.782;2023-06-14T10:52:13;95451.91;;;23.84;58.79
21658;BME280;10990;48.174;9.782;2023-06-14T10:55:04;95447.94;;;23.75;57.46
21658;BME280;10990;48.174;9.782;2023-06-14T10:57:31;95448.16;;;23.74;56.68
21658;BME280;10990;48.174;9.782;2023-06-14T10:59:59;95443.13;;;23.77;56.12
21658;BME280;10990;48.174;9.782;2023-06-14T11:05:27;95443.06;;;24.01;59.39
21658;BME280;10990;48.174;9.782;2023-06-14T11:08:21;95434.59;;;24.09;57.34
21658;BME280;10990;48.174;9.782;2023-06-14T11:10:54;95442.13;;;24.35;59.52
21658;BME280;10990;48.174;9.782;2023-06-14T11:13:24;95441.56;;;23.69;59.42
21658;BME280;10990;48.174;9.782;2023-06-14T11:15:52;95444.31;;;23.46;57.55
21658;BME280;10990;48.174;9.782;2023-06-14T11:18:21;95447.94;;;23.28;58.44
21658;BME280;10990;48.174;9.782;2023-06-14T11:20:49;95439.84;;;23.63;61.27
21658;BME280;10990;48.174;9.782;2023-06-14T11:23:17;95437.25;;;24.21;56.72
21658;BME280;10990;48.174;9.782;2023-06-14T11:25:49;95439.22;;;23.97;54.65
21658;BME280;10990;48.174;9.782;2023-06-14T11:28:16;95428.53;;;24.30;55.30
21658;BME280;10990;48.174;9.782;2023-06-14T11:30:45;95437.16;;;24.15;56.62
21658;BME280;10990;48.174;9.782;2023-06-14T11:33:16;95425.56;;;24.32;58.05
21658;BME280;10990;48.174;9.782;2023-06-14T11:35:43;95440.44;;;23.65;53.00
21658;BME280;10990;48.174;9.782;2023-06-14T11:38:10;95440.47;;;24.06;56.41
21658;BME280;10990;48.174;9.782;2023-06-14T11:40:39;95435.28;;;24.04;55.42
21658;BME280;10990;48.174;9.782;2023-06-14T11:43:05;95426.50;;;24.37;56.71
21658;BME280;10990;48.174;9.782;2023-06-14T11:45:32;95437.53;;;24.48;56.24
21658;BME280;10990;48.174;9.782;2023-06-14T11:47:59;95432.63;;;24.33;55.56
21658;BME280;10990;48.174;9.782;2023-06-14T11:50:26;95447.88;;;23.99;55.37
21658;BME280;10990;48.174;9.782;2023-06-14T11:52:53;95436.50;;;23.97;52.39
21658;BME280;10990;48.174;9.782;2023-06-14T11:55:21;95424.53;;;24.33;53.52
21658;BME280;10990;48.174;9.782;2023-06-14T11:57:49;95430.97;;;24.32;53.66
21658;BME280;10990;48.174;9.782;2023-06-14T12:00:17;95431.78;;;24.32;53.66
21658;BME280;10990;48.174;9.782;2023-06-14T12:02:52;95424.00;;;24.48;53.71
21658;BME280;10990;48.174;9.782;2023-06-14T12:05:20;95428.13;;;24.10;54.93
21658;BME280;10990;48.174;9.782;2023-06-14T12:07:47;95436.69;;;23.55;54.53
21658;BME280;10990;48.174;9.782;2023-06-14T12:10:14;95425.41;;;24.22;52.98
21658;BME280;10990;48.174;9.782;2023-06-14T12:12:41;95422.25;;;24.42;50.32
21658;BME280;10990;48.174;9.782;2023-06-14T12:15:09;95421.53;;;24.46;51.24
21658;BME280;10990;48.174;9.782;2023-06-14T12:17:38;95423.13;;;23.90;52.94
21658;BME280;10990;48.174;9.782;2023-06-14T12:20:08;95427.50;;;23.79;51.03
21658;BME280;10990;48.174;9.782;2023-06-14T12:22:39;95412.88;;;24.32;51.60
21658;BME280;10990;48.174;9.782;2023-06-14T12:25:06;95424.47;;;24.16;52.31
21658;BME280;10990;48.174;9.782;2023-06-14T12:27:35;95428.81;;;24.17;52.68
21658;BME280;10990;48.174;9.782;2023-06-14T12:30:03;95424.06;;;24.24;51.01
21658;BME280;10990;48.174;9.782;2023-06-14T12:32:31;95418.16;;;24.10;52.23
21658;BME280;10990;48.174;9.782;2023-06-14T12:34:58;95420.59;;;24.12;52.63
21658;BME280;10990;48.174;9.782;2023-06-14T12:37:25;95420.91;;;24.27;51.65
21658;BME280;10990;48.174;9.782;2023-06-14T12:39:52;95419.34;;;24.31;53.32
21658;BME280;10990;48.174;9.782;2023-06-14T12:42:18;95424.13;;;24.12;54.51
21658;BME280;10990;48.174;9.782;2023-06-14T12:44:45;95424.34;;;23.47;54.13
21658;BME280;10990;48.174;9.782;2023-06-14T12:47:11;95420.44;;;23.90;54.20
21658;BME280;10990;48.174;9.782;2023-06-14T12:49:40;95427.94;;;24.00;54.08
21658;BME280;10990;48.174;9.782;2023-06-14T12:52:08;95423.78;;;24.37;52.73
21658;BME280;10990;48.174;9.782;2023-06-14T12:54:35;95426.34;;;24.15;53.27
21658;BME280;10990;48.174;9.782;2023-06-14T12:57:02;95429.88;;;23.40;56.18
21658;BME280;10990;48.174;9.782;2023-06-14T12:59:29;95432.47;;;23.35;57.68
21658;BME280;10990;48.174;9.782;2023-06-14T13:01:59;95432.63;;;23.92;57.95
21658;BME280;10990;48.174;9.782;2023-06-14T13:04:26;95428.88;;;23.70;57.33
21658;BME280;10990;48.174;9.782;2023-06-14T13:06:54;95442.31;;;23.77;57.68